sensor_id;sensor_type;location;lat;lon;timestamp;pressure;altitude;pressure_sealevel;temperature;humidity
78986;BME280;68384;55.750;48.746;2023-11-21T00:00:08;98380.53;;;-4.08;86.35
78986;BME280;68384;55.750;48.746;2023-11-21T00:02:41;98379.94;;;-4.17;86.27
78986;BME280;68384;55.750;48.746;2023-11-21T00:05:10;98373.91;;;-4.19;86.49
78986;BME280;68384;55.750;48.746;2023-11-21T00:07:41;98377.41;;;-4.17;86.32
78986;BME280;68384;55.750;48.746;2023-11-21T00:10:10;98374.09;;;-4.16;86.36
78986;BME280;68384;55.750;48.746;2023-11-21T00:12:39;98370.81;;;-4.15;86.41
78986;BME280;68384;55.750;48.746;2023-11-21T00:15:10;98377.59;;;-4.14;86.07
78986;BME280;68384;55.750;48.746;2023-11-21T00:17:40;98364.38;;;-4.10;86.04
78986;BME280;68384;55.750;48.746;2023-11-21T00:20:08;98348.25;;;-4.12;86.13
78986;BME280;68384;55.750;48.746;2023-11-21T00:22:36;98350.66;;;-4.13;86.15
78986;BME280;68384;55.750;48.746;2023-11-21T00:25:04;98355.03;;;-4.11;86.37
78986;BME280;68384;55.750;48.746;2023-11-21T00:27:32;98339.09;;;-4.10;85.97
78986;BME280;68384;55.750;48.746;2023-11-21T00:29:59;98329.06;;;-4.08;86.21
78986;BME280;68384;55.750;48.746;2023-11-21T00:32:28;98336.34;;;-4.13;86.17
78986;BME280;68384;55.750;48.746;2023-11-21T00:34:55;98334.91;;;-4.09;86.18
78986;BME280;68384;55.750;48.746;2023-11-21T00:37:23;98333.22;;;-4.09;86.03
78986;BME280;68384;55.750;48.746;2023-11-21T00:39:52;98327.41;;;-4.08;86.11
78986;BME280;68384;55.750;48.746;2023-11-21T00:42:20;98328.78;;;-4.13;85.59
78986;BME280;68384;55.750;48.746;2023-11-21T00:44:49;98315.72;;;-4.06;85.89
78986;BME280;68384;55.750;48.746;2023-11-21T00:47:16;98316.91;;;-4.01;85.74
78986;BME280;68384;55.750;48.746;2023-11-21T00:49:44;98315.16;;;-4.02;85.60
78986;BME280;68384;55.750;48.746;2023-11-21T00:52:12;98306.88;;;-3.99;85.75
78986;BME280;68384;55.750;48.746;2023-11-21T00:54:40;98300.94;;;-4.00;85.35
78986;BME280;68384;55.750;48.746;2023-11-21T00:57:07;98289.25;;;-3.97;85.70
78986;BME280;68384;55.750;48.746;2023-11-21T00:59:36;98291.88;;;-3.96;85.17
78986;BME280;68384;55.750;48.746;2023-11-21T01:02:03;98288.75;;;-3.92;85.38
78986;BME280;68384;55.750;48.746;2023-11-21T01:04:32;98289.06;;;-3.87;85.27
78986;BME280;68384;55.750;48.746;2023-11-21T01:07:00;98292.16;;;-3.78;85.22
78986;BME280;68384;55.750;48.746;2023-11-21T01:09:27;98302.28;;;-3.78;84.12
78986;BME280;68384;55.750;48.746;2023-11-21T01:11:55;98302.28;;;-3.78;84.65
78986;BME280;68384;55.750;48.746;2023-11-21T01:14:24;98300.63;;;-3.78;84.42
78986;BME280;68384;55.750;48.746;2023-11-21T01:16:54;98304.81;;;-3.78;84.93
78986;BME280;68384;55.750;48.746;2023-11-21T01:19:21;98284.34;;;-3.81;84.76
78986;BME280;68384;55.750;48.746;2023-11-21T01:21:49;98260.03;;;-3.79;84.73
78986;BME280;68384;55.750;48.746;2023-11-21T01:24:17;98276.75;;;-3.81;84.82
78986;BME280;68384;55.750;48.746;2023-11-21T01:26:45;98270.66;;;-3.85;84.71
78986;BME280;68384;55.750;48.746;2023-11-21T01:29:14;98273.28;;;-3.83;84.69
78986;BME280;68384;55.750;48.746;2023-11-21T01:31:42;98271.69;;;-3.81;84.64
78986;BME280;68384;55.750;48.746;2023-11-21T01:34:10;98261.06;;;-3.76;85.15
78986;BME280;68384;55.750;48.746;2023-11-21T01:36:38;98276.56;;;-3.71;84.57
78986;BME280;68384;55.750;48.746;2023-11-21T01:39:06;98258.84;;;-3.71;84.60
78986;BME280;68384;55.750;48.746;2023-11-21T01:41:36;98265.28;;;-3.76;84.64
78986;BME280;68384;55.750;48.746;2023-11-21T01:44:04;98273.06;;;-3.73;84.53
78986;BME280;68384;55.750;48.746;2023-11-21T01:46:35;98272.28;;;-3.72;84.54
78986;BME280;68384;55.750;48.746;2023-11-21T01:49:05;98271.69;;;-3.68;84.19
78986;BME280;68384;55.750;48.746;2023-11-21T01:51:33;98276.97;;;-3.65;84.41
78986;BME280;68384;55.750;48.746;2023-11-21T01:54:02;98283.25;;;-3.59;84.39
78986;BME280;68384;55.750;48.746;2023-11-21T01:56:45;98269.91;;;-3.56;84.08
78986;BME280;68384;55.750;48.746;2023-11-21T01:59:16;98289.38;;;-3.55;83.95
78986;BME280;68384;55.750;48.746;2023-11-21T02:01:45;98278.66;;;-3.51;83.93
78986;BME280;68384;55.750;48.746;2023-11-21T02:04:14;98266.38;;;-3.45;83.70
78986;BME280;68384;55.750;48.746;2023-11-21T02:06:43;98273.19;;;-3.44;83.34
78986;BME280;68384;55.750;48.746;2023-11-21T02:09:11;98263.84;;;-3.45;83.17
78986;BME280;68384;55.750;48.746;2023-11-21T02:11:42;98260.53;;;-3.44;83.26
78986;BME280;68384;55.750;48.746;2023-11-21T02:14:10;98256.53;;;-3.41;83.60
78986;BME280;68384;55.750;48.746;2023-11-21T02:16:38;98256.81;;;-3.36;83.23
78986;BME280;68384;55.750;48.746;2023-11-21T02:19:07;98255.22;;;-3.34;83.14
78986;BME280;68384;55.750;48.746;2023-11-21T02:21:37;98263.53;;;-3.36;83.00
78986;BME280;68384;55.750;48.746;2023-11-21T02:24:08;98270.16;;;-3.38;83.02
78986;BME280;68384;55.750;48.746;2023-11-21T02:26:35;98261.75;;;-3.38;83.02
78986;BME280;68384;55.750;48.746;2023-11-21T02:29:03;98254.28;;;-3.36;83.10
78986;BME280;68384;55.750;48.746;2023-11-21T02:31:31;98252.13;;;-3.30;83.17
78986;BME280;68384;55.750;48.746;2023-11-21T02:34:00;98243.88;;;-3.26;82.85
78986;BME280;68384;55.750;48.746;2023-11-21T02:36:28;98245.66;;;-3.25;82.79
78986;BME280;68384;55.750;48.746;2023-11-21T02:38:56;98246.44;;;-3.26;82.77
78986;BME280;68384;55.750;48.746;2023-11-21T02:41:23;98246.63;;;-3.23;82.75
78986;BME280;68384;55.750;48.746;2023-11-21T02:43:52;98250.78;;;-3.23;82.68
78986;BME280;68384;55.750;48.746;2023-11-21T02:46:20;98243.19;;;-3.23;82.88
78986;BME280;68384;55.750;48.746;2023-11-21T02:48:48;98249.91;;;-3.24;82.39
78986;BME280;68384;55.750;48.746;2023-11-21T02:51:16;98232.97;;;-3.25;82.54
78986;BME280;68384;55.750;48.746;2023-11-21T02:53:44;98233.88;;;-3.24;82.67
78986;BME280;68384;55.750;48.746;2023-11-21T02:56:15;98230.97;;;-3.16;82.80
78986;BME280;68384;55.750;48.746;2023-11-21T02:58:43;98232.84;;;-3.13;82.55
78986;BME280;68384;55.750;48.746;2023-11-21T03:01:11;98231.63;;;-3.05;82.45
78986;BME280;68384;55.750;48.746;2023-11-21T03:03:40;98238.63;;;-3.01;82.44
78986;BME280;68384;55.750;48.746;2023-11-21T03:06:07;98232.25;;;-2.95;82.03
78986;BME280;68384;55.750;48.746;2023-11-21T03:08:35;98225.69;;;-2.91;81.71
78986;BME280;68384;55.750;48.746;2023-11-21T03:11:03;98232.44;;;-2.92;81.80
78986;BME280;68384;55.750;48.746;2023-11-21T03:13:31;98237.94;;;-2.84;82.06
78986;BME280;68384;55.750;48.746;2023-11-21T03:15:58;98233.75;;;-2.84;81.50
78986;BME280;68384;55.750;48.746;2023-11-21T03:18:26;98233.94;;;-2.81;81.34
78986;BME280;68384;55.750;48.746;2023-11-21T03:20:56;98242.38;;;-2.80;81.18
78986;BME280;68384;55.750;48.746;2023-11-21T03:23:24;98238.38;;;-2.76;81.30
78986;BME280;68384;55.750;48.746;2023-11-21T03:25:52;98236.03;;;-2.73;81.10
78986;BME280;68384;55.750;48.746;2023-11-21T03:28:19;98236.97;;;-2.71;81.36
78986;BME280;68384;55.750;48.746;2023-11-21T03:30:47;98232.09;;;-2.68;81.14
78986;BME280;68384;55.750;48.746;2023-11-21T03:33:15;98217.75;;;-2.68;80.65
78986;BME280;68384;55.750;48.746;2023-11-21T03:35:42;98220.88;;;-2.72;80.95
78986;BME280;68384;55.750;48.746;2023-11-21T03:38:12;98213.03;;;-2.76;80.60
78986;BME280;68384;55.750;48.746;2023-11-21T03:40:39;98221.59;;;-2.74;80.62
78986;BME280;68384;55.750;48.746;2023-11-21T03:43:07;98214.97;;;-2.72;80.85
78986;BME280;68384;55.750;48.746;2023-11-21T03:45:35;98210.22;;;-2.66;80.91
78986;BME280;68384;55.750;48.746;2023-11-21T03:48:02;98202.53;;;-2.68;80.63
78986;BME280;68384;55.750;48.746;2023-11-21T03:50:30;98210.06;;;-2.69;80.51
78986;BME280;68384;55.750;48.746;2023-11-21T03:52:58;98202.47;;;-2.69;80.40
78986;BME280;68384;55.750;48.746;2023-11-21T03:55:27;98211.72;;;-2.70;80.39
78986;BME280;68384;55.750;48.746;2023-11-21T03:57:55;98204.00;;;-2.71;80.58
78986;BME280;68384;55.750;48.746;2023-11-21T04:00:22;98210.72;;;-2.72;80.86
78986;BME280;68384;55.750;48.746;2023-11-21T04:02:50;98199.13;;;-2.68;80.27
78986;BME280;68384;55.750;48.746;2023-11-21T04:05:20;98197.53;;;-2.66;80.45
78986;BME280;68384;55.750;48.746;2023-11-21T04:07:51;98196.75;;;-2.65;80.34
78986;BME280;68384;55.750;48.746;2023-11-21T04:10:19;98187.66;;;-2.62;80.11
78986;BME280;68384;55.750;48.746;2023-11-21T04:12:47;98185.91;;;-2.63;80.08
78986;BME280;68384;55.750;48.746;2023-11-21T04:15:15;98190.81;;;-2.66;80.10
78986;BME280;68384;55.750;48.746;2023-11-21T04:17:43;98191.75;;;-2.64;80.02
78986;BME280;68384;55.750;48.746;2023-11-21T04:20:12;98199.28;;;-2.65;80.10
78986;BME280;68384;55.750;48.746;2023-11-21T04:22:41;98195.81;;;-2.67;80.16
78986;BME280;68384;55.750;48.746;2023-11-21T04:25:14;98197.72;;;-2.63;79.96
78986;BME280;68384;55.750;48.746;2023-11-21T04:27:45;98202.97;;;-2.60;80.28
78986;BME280;68384;55.750;48.746;2023-11-21T04:30:13;98198.84;;;-2.58;79.99
78986;BME280;68384;55.750;48.746;2023-11-21T04:32:41;98200.69;;;-2.56;79.79
78986;BME280;68384;55.750;48.746;2023-11-21T04:35:12;98194.75;;;-2.56;79.92
78986;BME280;68384;55.750;48.746;2023-11-21T04:37:40;98199.28;;;-2.51;79.80
78986;BME280;68384;55.750;48.746;2023-11-21T04:40:08;98198.59;;;-2.48;79.85
78986;BME280;68384;55.750;48.746;2023-11-21T04:42:36;98199.53;;;-2.46;79.85
78986;BME280;68384;55.750;48.746;2023-11-21T04:45:08;98198.94;;;-2.42;79.95
78986;BME280;68384;55.750;48.746;2023-11-21T04:47:37;98194.00;;;-2.39;79.40
78986;BME280;68384;55.750;48.746;2023-11-21T04:50:05;98197.59;;;-2.36;79.49
78986;BME280;68384;55.750;48.746;2023-11-21T04:52:33;98189.09;;;-2.36;79.57
78986;BME280;68384;55.750;48.746;2023-11-21T04:55:01;98201.09;;;-2.34;79.63
78986;BME280;68384;55.750;48.746;2023-11-21T04:57:31;98199.78;;;-2.27;79.35
78986;BME280;68384;55.750;48.746;2023-11-21T04:59:59;98202.56;;;-2.23;79.32
78986;BME280;68384;55.750;48.746;2023-11-21T05:02:30;98201.00;;;-2.21;79.28
78986;BME280;68384;55.750;48.746;2023-11-21T05:05:02;98195.22;;;-2.18;78.87
78986;BME280;68384;55.750;48.746;2023-11-21T05:07:33;98198.75;;;-2.14;78.76
78986;BME280;68384;55.750;48.746;2023-11-21T05:10:06;98190.19;;;-2.16;78.91
78986;BME280;68384;55.750;48.746;2023-11-21T05:12:41;98191.16;;;-2.14;79.21
78986;BME280;68384;55.750;48.746;2023-11-21T05:15:13;98193.16;;;-2.09;78.83
78986;BME280;68384;55.750;48.746;2023-11-21T05:17:41;98196.84;;;-2.04;78.67
78986;BME280;68384;55.750;48.746;2023-11-21T05:20:11;98185.16;;;-2.00;78.92
78986;BME280;68384;55.750;48.746;2023-11-21T05:22:40;98183.66;;;-1.97;78.58
78986;BME280;68384;55.750;48.746;2023-11-21T05:25:09;98187.97;;;-1.96;78.65
78986;BME280;68384;55.750;48.746;2023-11-21T05:27:38;98184.00;;;-1.91;78.54
78986;BME280;68384;55.750;48.746;2023-11-21T05:30:07;98189.25;;;-1.88;78.31
78986;BME280;68384;55.750;48.746;2023-11-21T05:32:40;98183.19;;;-1.90;78.23
78986;BME280;68384;55.750;48.746;2023-11-21T05:35:11;98190.97;;;-1.87;78.04
78986;BME280;68384;55.750;48.746;2023-11-21T05:37:45;98192.75;;;-1.86;78.02
78986;BME280;68384;55.750;48.746;2023-11-21T05:40:13;98193.63;;;-1.85;78.57
78986;BME280;68384;55.750;48.746;2023-11-21T05:42:44;98185.34;;;-1.81;78.44
78986;BME280;68384;55.750;48.746;2023-11-21T05:45:12;98185.47;;;-1.80;78.10
78986;BME280;68384;55.750;48.746;2023-11-21T05:47:42;98194.03;;;-1.78;78.03
78986;BME280;68384;55.750;48.746;2023-11-21T05:50:11;98193.38;;;-1.74;78.13
78986;BME280;68384;55.750;48.746;2023-11-21T05:52:44;98192.03;;;-1.67;78.18
78986;BME280;68384;55.750;48.746;2023-11-21T05:55:12;98193.09;;;-1.64;77.79
78986;BME280;68384;55.750;48.746;2023-11-21T05:57:42;98181.56;;;-1.57;77.70
78986;BME280;68384;55.750;48.746;2023-11-21T06:00:12;98167.47;;;-1.52;77.57
78986;BME280;68384;55.750;48.746;2023-11-21T06:02:50;98158.56;;;-1.44;77.03
78986;BME280;68384;55.750;48.746;2023-11-21T06:05:20;98170.78;;;-1.37;76.53
78986;BME280;68384;55.750;48.746;2023-11-21T06:07:51;98169.13;;;-1.36;76.84
78986;BME280;68384;55.750;48.746;2023-11-21T06:10:21;98171.16;;;-1.29;76.61
78986;BME280;68384;55.750;48.746;2023-11-21T06:12:49;98167.84;;;-1.28;76.22
78986;BME280;68384;55.750;48.746;2023-11-21T06:15:16;98162.75;;;-1.28;76.01
78986;BME280;68384;55.750;48.746;2023-11-21T06:17:48;98164.47;;;-1.27;76.28
78986;BME280;68384;55.750;48.746;2023-11-21T06:20:21;98168.06;;;-1.24;75.91
78986;BME280;68384;55.750;48.746;2023-11-21T06:22:51;98156.22;;;-1.23;76.25
78986;BME280;68384;55.750;48.746;2023-11-21T06:25:19;98156.22;;;-1.23;76.18
78986;BME280;68384;55.750;48.746;2023-11-21T06:27:48;98157.97;;;-1.22;76.25
78986;BME280;68384;55.750;48.746;2023-11-21T06:30:16;98160.59;;;-1.21;76.22
78986;BME280;68384;55.750;48.746;2023-11-21T06:32:44;98156.69;;;-1.14;76.36
78986;BME280;68384;55.750;48.746;2023-11-21T06:35:15;98162.88;;;-1.09;76.06
78986;BME280;68384;55.750;48.746;2023-11-21T06:37:45;98157.97;;;-1.06;76.02
78986;BME280;68384;55.750;48.746;2023-11-21T06:40:18;98155.56;;;-1.03;75.25
78986;BME280;68384;55.750;48.746;2023-11-21T06:42:47;98149.81;;;-0.99;75.34
78986;BME280;68384;55.750;48.746;2023-11-21T06:45:16;98150.75;;;-0.97;75.34
78986;BME280;68384;55.750;48.746;2023-11-21T06:47:44;98147.50;;;-0.94;75.27
78986;BME280;68384;55.750;48.746;2023-11-21T06:50:13;98148.16;;;-0.98;74.98
78986;BME280;68384;55.750;48.746;2023-11-21T06:52:41;98152.53;;;-0.96;75.33
78986;BME280;68384;55.750;48.746;2023-11-21T06:55:08;98151.78;;;-0.93;74.94
78986;BME280;68384;55.750;48.746;2023-11-21T06:57:37;98154.44;;;-0.92;74.93
78986;BME280;68384;55.750;48.746;2023-11-21T07:00:06;98157.91;;;-0.90;75.20
78986;BME280;68384;55.750;48.746;2023-11-21T07:02:37;98155.44;;;-0.88;75.16
78986;BME280;68384;55.750;48.746;2023-11-21T07:05:06;98152.16;;;-0.86;74.77
78986;BME280;68384;55.750;48.746;2023-11-21T07:07:35;98155.59;;;-0.85;74.59
78986;BME280;68384;55.750;48.746;2023-11-21T07:10:03;98160.75;;;-0.84;74.53
78986;BME280;68384;55.750;48.746;2023-11-21T07:12:33;98161.75;;;-0.80;74.69
78986;BME280;68384;55.750;48.746;2023-11-21T07:15:02;98158.34;;;-0.81;74.32
78986;BME280;68384;55.750;48.746;2023-11-21T07:17:32;98155.22;;;-0.75;74.59
78986;BME280;68384;55.750;48.746;2023-11-21T07:20:03;98156.97;;;-0.74;74.34
78986;BME280;68384;55.750;48.746;2023-11-21T07:22:31;98159.69;;;-0.71;74.33
78986;BME280;68384;55.750;48.746;2023-11-21T07:24:59;98161.44;;;-0.70;74.05
78986;BME280;68384;55.750;48.746;2023-11-21T07:27:29;98161.44;;;-0.70;73.92
78986;BME280;68384;55.750;48.746;2023-11-21T07:29:57;98162.44;;;-0.67;73.89
78986;BME280;68384;55.750;48.746;2023-11-21T07:32:25;98158.31;;;-0.65;73.65
78986;BME280;68384;55.750;48.746;2023-11-21T07:34:53;98147.03;;;-0.70;73.55
78986;BME280;68384;55.750;48.746;2023-11-21T07:37:21;98151.13;;;-0.73;73.77
78986;BME280;68384;55.750;48.746;2023-11-21T07:39:48;98150.22;;;-0.74;74.19
78986;BME280;68384;55.750;48.746;2023-11-21T07:42:16;98151.03;;;-0.75;73.89
78986;BME280;68384;55.750;48.746;2023-11-21T07:44:45;98150.22;;;-0.74;73.92
78986;BME280;68384;55.750;48.746;2023-11-21T07:47:14;98148.72;;;-0.70;73.71
78986;BME280;68384;55.750;48.746;2023-11-21T07:49:42;98142.66;;;-0.72;73.81
78986;BME280;68384;55.750;48.746;2023-11-21T07:52:11;98146.19;;;-0.70;73.84
78986;BME280;68384;55.750;48.746;2023-11-21T07:54:39;98146.22;;;-0.69;73.80
78986;BME280;68384;55.750;48.746;2023-11-21T07:57:06;98145.50;;;-0.66;73.64
78986;BME280;68384;55.750;48.746;2023-11-21T07:59:35;98144.78;;;-0.64;73.46
78986;BME280;68384;55.750;48.746;2023-11-21T08:02:03;98147.47;;;-0.61;73.48
78986;BME280;68384;55.750;48.746;2023-11-21T08:04:31;98144.72;;;-0.65;73.04
78986;BME280;68384;55.750;48.746;2023-11-21T08:07:01;98133.66;;;-0.66;73.51
78986;BME280;68384;55.750;48.746;2023-11-21T08:09:31;98135.53;;;-0.62;73.65
78986;BME280;68384;55.750;48.746;2023-11-21T08:11:58;98138.09;;;-0.62;73.67
78986;BME280;68384;55.750;48.746;2023-11-21T08:14:28;98131.63;;;-0.55;73.63
78986;BME280;68384;55.750;48.746;2023-11-21T08:16:55;98128.44;;;-0.51;73.56
78986;BME280;68384;55.750;48.746;2023-11-21T08:19:25;98129.59;;;-0.45;73.32
78986;BME280;68384;55.750;48.746;2023-11-21T08:21:52;98126.56;;;-0.37;72.90
78986;BME280;68384;55.750;48.746;2023-11-21T08:24:21;98134.44;;;-0.31;72.52
78986;BME280;68384;55.750;48.746;2023-11-21T08:26:49;98127.91;;;-0.26;72.35
78986;BME280;68384;55.750;48.746;2023-11-21T08:29:18;98122.09;;;-0.24;72.31
78986;BME280;68384;55.750;48.746;2023-11-21T08:31:45;98125.56;;;-0.22;72.05
78986;BME280;68384;55.750;48.746;2023-11-21T08:34:16;98122.09;;;-0.24;72.05
78986;BME280;68384;55.750;48.746;2023-11-21T08:36:44;98123.75;;;-0.24;72.14
78986;BME280;68384;55.750;48.746;2023-11-21T08:39:12;98127.38;;;-0.19;72.02
78986;BME280;68384;55.750;48.746;2023-11-21T08:41:46;98132.44;;;-0.21;72.22
78986;BME280;68384;55.750;48.746;2023-11-21T08:44:13;98128.03;;;-0.23;72.16
78986;BME280;68384;55.750;48.746;2023-11-21T08:46:46;98121.88;;;-0.28;72.46
78986;BME280;68384;55.750;48.746;2023-11-21T08:49:14;98120.97;;;-0.29;72.49
78986;BME280;68384;55.750;48.746;2023-11-21T08:51:44;98126.47;;;-0.21;72.34
78986;BME280;68384;55.750;48.746;2023-11-21T08:54:12;98128.72;;;-0.27;71.94
78986;BME280;68384;55.750;48.746;2023-11-21T08:56:40;98120.41;;;-0.23;72.24
78986;BME280;68384;55.750;48.746;2023-11-21T08:59:07;98119.56;;;-0.24;72.20
78986;BME280;68384;55.750;48.746;2023-11-21T09:01:35;98117.94;;;-0.22;71.71
78986;BME280;68384;55.750;48.746;2023-11-21T09:04:03;98116.91;;;-0.25;71.60
78986;BME280;68384;55.750;48.746;2023-11-21T09:06:31;98116.91;;;-0.25;71.47
78986;BME280;68384;55.750;48.746;2023-11-21T09:08:59;98128.28;;;-0.36;71.32
78986;BME280;68384;55.750;48.746;2023-11-21T09:11:26;98126.03;;;-0.30;72.18
78986;BME280;68384;55.750;48.746;2023-11-21T09:14:00;98120.00;;;-0.32;71.78
78986;BME280;68384;55.750;48.746;2023-11-21T09:16:28;98120.78;;;-0.33;71.85
78986;BME280;68384;55.750;48.746;2023-11-21T09:18:56;98125.72;;;-0.36;71.72
78986;BME280;68384;55.750;48.746;2023-11-21T09:21:26;98119.09;;;-0.51;71.93
78986;BME280;68384;55.750;48.746;2023-11-21T09:23:54;98129.28;;;-0.51;72.01
78986;BME280;68384;55.750;48.746;2023-11-21T09:26:22;98120.72;;;-0.53;72.16
78986;BME280;68384;55.750;48.746;2023-11-21T09:28:50;98115.72;;;-0.51;72.00
78986;BME280;68384;55.750;48.746;2023-11-21T09:31:18;98118.38;;;-0.48;71.94
78986;BME280;68384;55.750;48.746;2023-11-21T09:33:50;98104.44;;;-0.74;71.86
78986;BME280;68384;55.750;48.746;2023-11-21T09:36:20;98112.34;;;-0.85;72.86
78986;BME280;68384;55.750;48.746;2023-11-21T09:38:51;98106.09;;;-0.92;73.47
78986;BME280;68384;55.750;48.746;2023-11-21T09:41:34;98104.50;;;-0.90;73.49
78986;BME280;68384;55.750;48.746;2023-11-21T09:44:08;98104.56;;;-0.88;73.94
78986;BME280;68384;55.750;48.746;2023-11-21T09:46:41;98103.91;;;-1.02;73.51
78986;BME280;68384;55.750;48.746;2023-11-21T09:49:11;98103.34;;;-1.46;74.72
78986;BME280;68384;55.750;48.746;2023-11-21T09:51:43;98096.53;;;-1.47;75.21
78986;BME280;68384;55.750;48.746;2023-11-21T09:54:15;98097.00;;;-1.54;75.52
78986;BME280;68384;55.750;48.746;2023-11-21T09:56:45;98094.19;;;-1.77;76.13
78986;BME280;68384;55.750;48.746;2023-11-21T09:59:14;98098.94;;;-1.83;76.54
78986;BME280;68384;55.750;48.746;2023-11-21T10:01:43;98104.47;;;-2.06;77.11
78986;BME280;68384;55.750;48.746;2023-11-21T10:04:11;98097.16;;;-2.16;77.72
78986;BME280;68384;55.750;48.746;2023-11-21T10:06:39;98116.22;;;-2.08;77.90
78986;BME280;68384;55.750;48.746;2023-11-21T10:09:12;98107.00;;;-2.22;78.07
78986;BME280;68384;55.750;48.746;2023-11-21T10:11:42;98101.03;;;-2.23;78.60
78986;BME280;68384;55.750;48.746;2023-11-21T10:14:11;98113.16;;;-2.33;78.55
78986;BME280;68384;55.750;48.746;2023-11-21T10:16:44;98111.25;;;-2.37;79.48
78986;BME280;68384;55.750;48.746;2023-11-21T10:19:15;98109.72;;;-2.34;79.07
78986;BME280;68384;55.750;48.746;2023-11-21T10:21:44;98107.75;;;-2.39;79.51
78986;BME280;68384;55.750;48.746;2023-11-21T10:24:12;98100.00;;;-2.42;79.83
78986;BME280;68384;55.750;48.746;2023-11-21T10:26:41;98103.66;;;-2.37;80.02
78986;BME280;68384;55.750;48.746;2023-11-21T10:29:19;98099.59;;;-2.34;79.65
78986;BME280;68384;55.750;48.746;2023-11-21T10:31:50;98100.47;;;-2.33;79.36
78986;BME280;68384;55.750;48.746;2023-11-21T10:34:20;98107.63;;;-2.26;79.43
78986;BME280;68384;55.750;48.746;2023-11-21T10:36:48;98093.16;;;-2.43;79.62
78986;BME280;68384;55.750;48.746;2023-11-21T10:39:20;98087.31;;;-2.42;79.66
78986;BME280;68384;55.750;48.746;2023-11-21T10:41:51;98078.97;;;-2.40;79.59
78986;BME280;68384;55.750;48.746;2023-11-21T10:44:18;98074.44;;;-2.45;79.76
78986;BME280;68384;55.750;48.746;2023-11-21T10:46:53;98077.25;;;-2.55;80.12
78986;BME280;68384;55.750;48.746;2023-11-21T10:49:25;98081.50;;;-2.70;80.75
78986;BME280;68384;55.750;48.746;2023-11-21T10:51:55;98077.09;;;-2.89;80.66
78986;BME280;68384;55.750;48.746;2023-11-21T10:54:24;98072.19;;;-2.86;81.10
78986;BME280;68384;55.750;48.746;2023-11-21T10:56:57;98072.09;;;-2.88;81.11
78986;BME280;68384;55.750;48.746;2023-11-21T10:59:30;98078.75;;;-2.90;81.61
78986;BME280;68384;55.750;48.746;2023-11-21T11:02:02;98068.78;;;-3.01;82.08
78986;BME280;68384;55.750;48.746;2023-11-21T11:04:35;98060.06;;;-2.92;81.92
78986;BME280;68384;55.750;48.746;2023-11-21T11:07:08;98053.56;;;-2.87;81.77
78986;BME280;68384;55.750;48.746;2023-11-21T11:09:40;98059.13;;;-2.78;81.47
78986;BME280;68384;55.750;48.746;2023-11-21T11:12:08;98055.97;;;-2.73;81.27
78986;BME280;68384;55.750;48.746;2023-11-21T11:14:40;98047.31;;;-2.77;81.10
78986;BME280;68384;55.750;48.746;2023-11-21T11:17:08;98054.72;;;-2.96;81.08
78986;BME280;68384;55.750;48.746;2023-11-21T11:19:38;98042.94;;;-3.10;82.06
78986;BME280;68384;55.750;48.746;2023-11-21T11:28:02;98055.38;;;-3.44;83.38
78986;BME280;68384;55.750;48.746;2023-11-21T11:30:45;98050.13;;;-3.32;83.74
78986;BME280;68384;55.750;48.746;2023-11-21T11:36:02;98047.69;;;-3.16;82.98
78986;BME280;68384;55.750;48.746;2023-11-21T11:38:32;98060.41;;;-3.15;83.14
78986;BME280;68384;55.750;48.746;2023-11-21T11:41:04;98056.41;;;-3.11;82.49
78986;BME280;68384;55.750;48.746;2023-11-21T11:43:32;98055.34;;;-3.15;82.67
78986;BME280;68384;55.750;48.746;2023-11-21T11:46:03;98058.59;;;-3.17;82.75
78986;BME280;68384;55.750;48.746;2023-11-21T11:48:37;98065.66;;;-3.12;82.65
78986;BME280;68384;55.750;48.746;2023-11-21T11:51:11;98071.25;;;-3.03;82.43
78986;BME280;68384;55.750;48.746;2023-11-21T11:53:46;98075.03;;;-3.11;82.08
78986;BME280;68384;55.750;48.746;2023-11-21T11:58:56;98051.78;;;-3.33;82.93
78986;BME280;68384;55.750;48.746;2023-11-21T12:01:26;98069.34;;;-3.36;83.08
78986;BME280;68384;55.750;48.746;2023-11-21T12:06:51;98083.66;;;-3.51;83.47
78986;BME280;68384;55.750;48.746;2023-11-21T12:09:23;98078.31;;;-3.56;83.42
78986;BME280;68384;55.750;48.746;2023-11-21T12:11:51;98083.31;;;-3.57;83.16
78986;BME280;68384;55.750;48.746;2023-11-21T12:14:19;98077.09;;;-3.62;83.44
78986;BME280;68384;55.750;48.746;2023-11-21T12:16:47;98065.41;;;-3.60;83.67
78986;BME280;68384;55.750;48.746;2023-11-21T12:19:15;98073.81;;;-3.47;83.44
78986;BME280;68384;55.750;48.746;2023-11-21T12:21:43;98079.47;;;-3.36;83.01
78986;BME280;68384;55.750;48.746;2023-11-21T12:24:11;98072.47;;;-3.40;82.83
78986;BME280;68384;55.750;48.746;2023-11-21T12:26:42;98066.28;;;-3.45;82.37
78986;BME280;68384;55.750;48.746;2023-11-21T12:29:11;98071.09;;;-3.50;82.99
78986;BME280;68384;55.750;48.746;2023-11-21T12:31:39;98077.38;;;-3.58;83.03
78986;BME280;68384;55.750;48.746;2023-11-21T12:34:07;98072.50;;;-3.55;82.99
78986;BME280;68384;55.750;48.746;2023-11-21T12:36:38;98071.94;;;-3.64;83.29
78986;BME280;68384;55.750;48.746;2023-11-21T12:39:06;98079.28;;;-3.68;83.13
78986;BME280;68384;55.750;48.746;2023-11-21T12:41:36;98077.25;;;-3.74;83.43
78986;BME280;68384;55.750;48.746;2023-11-21T12:44:09;98082.59;;;-3.69;83.23
78986;BME280;68384;55.750;48.746;2023-11-21T12:46:42;98087.78;;;-3.81;83.60
78986;BME280;68384;55.750;48.746;2023-11-21T12:49:11;98095.75;;;-3.75;83.56
78986;BME280;68384;55.750;48.746;2023-11-21T12:51:48;98092.53;;;-3.87;83.84
78986;BME280;68384;55.750;48.746;2023-11-21T12:54:15;98094.69;;;-3.78;83.91
78986;BME280;68384;55.750;48.746;2023-11-21T12:56:46;98098.41;;;-3.73;83.48
78986;BME280;68384;55.750;48.746;2023-11-21T12:59:16;98096.88;;;-3.84;83.22
78986;BME280;68384;55.750;48.746;2023-11-21T13:01:45;98101.44;;;-3.79;83.62
78986;BME280;68384;55.750;48.746;2023-11-21T13:04:16;98090.75;;;-3.88;83.37
78986;BME280;68384;55.750;48.746;2023-11-21T13:06:43;98095.38;;;-3.81;83.21
78986;BME280;68384;55.750;48.746;2023-11-21T13:09:12;98097.03;;;-3.81;83.49
78986;BME280;68384;55.750;48.746;2023-11-21T13:11:45;98108.34;;;-3.76;83.08
78986;BME280;68384;55.750;48.746;2023-11-21T13:14:12;98120.13;;;-3.77;82.84